MiSS Stacie — WDF5915 — position and weather

sailwx.info

Track history (hours):
 
Tides and Currents Weather Stations Pressure Air Temp Water Temp Dewpoint Dewpoint Depression Visibility Wind Speed Wind Dir Waves Ship Positions

MiSS Stacie

Owner: Crosby Marine Transportation LLC, Golden Meadow, LA. More information available from US FCC via Universal Licensing System and Coast Guard Vessel Documentation Center.

Last reported at 2017-Mar-28 15:28 UTC. Time now 2017-Mar-28 15:57 UTC.
Position N 29°44' W 095°16'.

Length 20 m; draft 2 m.

Type: Tug. MMSI: 367468640.

Date/timePositionNaut miles runAvg speedWind from/ knotsBaromVisibWave heightAir tempDewpointWater temp
2017-Mar-28 15:28N 29°44' W 095°16'0 0.0
2017-Mar-28 14:32N 29°44' W 095°16'0 0.0
2017-Mar-28 13:33N 29°44' W 095°16'0 0.0
2017-Mar-28 12:33N 29°44' W 095°16'0 0.0
2017-Mar-28 04:32N 29°44' W 095°16'4 3.1
2017-Mar-28 03:08N 29°45' W 095°11'2 4.1
2017-Mar-28 02:33N 29°44' W 095°08'1 0.7
2017-Mar-28 01:25N 29°44' W 095°07'0 0.0
2017-Mar-28 00:32N 29°44' W 095°07'0 0.0
2017-Mar-27 23:09N 29°44' W 095°07'0 0.0
2017-Mar-27 22:33N 29°44' W 095°07'0 0.0
2017-Mar-27 21:16N 29°44' W 095°07'0 0.0
2017-Mar-27 20:29N 29°44' W 095°07'0 0.0
2017-Mar-27 18:09N 29°44' W 095°07'3 5.7
2017-Mar-27 17:33N 29°45' W 095°11'4 4.3
2017-Mar-27 16:33N 29°44' W 095°16'0 0.0
2017-Mar-27 15:15N 29°44' W 095°16'0 0.0
2017-Mar-27 14:23N 29°44' W 095°16'0 0.0
2017-Mar-27 13:04N 29°44' W 095°16'0 0.0
2017-Mar-27 12:32N 29°44' W 095°16'0 0.0
2017-Mar-27 06:27N 29°44' W 095°16'0 0.0
2017-Mar-27 03:21N 29°44' W 095°16'0 0.0
2017-Mar-27 02:30N 29°44' W 095°16'0 0.0
2017-Mar-27 01:33N 29°44' W 095°16'0 0.0
2017-Mar-27 00:32N 29°44' W 095°16'0 0.2
2017-Mar-26 23:33N 29°44' W 095°16'0 0.0
2017-Mar-26 22:30N 29°44' W 095°16'0 0.2
2017-Mar-26 21:14N 29°44' W 095°16'0 0.3
2017-Mar-26 20:32N 29°44' W 095°16'0 0.1
2017-Mar-26 19:30N 29°44' W 095°16'4 0.3
2017-Mar-26 04:22N 29°45' W 095°11'5 5.6
2017-Mar-26 03:33N 29°45' W 095°06'5 4.6
2017-Mar-26 02:33N 29°43' W 095°01'6 6.0
2017-Mar-26 01:33N 29°38' W 094°58'7 6.6
2017-Mar-26 00:33N 29°32' W 094°54'2 0.0
2017-Mar-23 21:11N 29°31' W 094°53'4 6.1
2017-Mar-23 20:34N 29°34' W 094°55'7 6.6
2017-Mar-23 19:33N 29°40' W 094°59'5 5.3
2017-Mar-23 18:33N 29°44' W 095°03'  
2017-Mar-21 03:29N 29°46' W 095°06'  
Track history (hours):
 
Tides and Currents Weather Stations Pressure Air Temp Water Temp Dewpoint Dewpoint Depression Visibility Wind Speed Wind Dir Waves Ship Positions

MiSS Stacie

Owner: Crosby Marine Transportation LLC, Golden Meadow, LA. More information available from US FCC via Universal Licensing System and Coast Guard Vessel Documentation Center.

Last reported at 2017-Mar-28 15:28 UTC. Time now 2017-Mar-28 15:57 UTC.
Position N 29°44' W 095°16'.

Length 20 m; draft 2 m.

Type: Tug. MMSI: 367468640.

Date/timePositionNaut miles runAvg speedWind from/ knotsBaromVisibWave heightAir tempDewpointWater temp
2017-Mar-28 15:28N 29°44' W 095°16'0 0.0
2017-Mar-28 14:32N 29°44' W 095°16'0 0.0
2017-Mar-28 13:33N 29°44' W 095°16'0 0.0
2017-Mar-28 12:33N 29°44' W 095°16'0 0.0
2017-Mar-28 04:32N 29°44' W 095°16'4 3.1
2017-Mar-28 03:08N 29°45' W 095°11'2 4.1
2017-Mar-28 02:33N 29°44' W 095°08'1 0.7
2017-Mar-28 01:25N 29°44' W 095°07'0 0.0
2017-Mar-28 00:32N 29°44' W 095°07'0 0.0
2017-Mar-27 23:09N 29°44' W 095°07'0 0.0
2017-Mar-27 22:33N 29°44' W 095°07'0 0.0
2017-Mar-27 21:16N 29°44' W 095°07'0 0.0
2017-Mar-27 20:29N 29°44' W 095°07'0 0.0
2017-Mar-27 18:09N 29°44' W 095°07'3 5.7
2017-Mar-27 17:33N 29°45' W 095°11'4 4.3
2017-Mar-27 16:33N 29°44' W 095°16'0 0.0
2017-Mar-27 15:15N 29°44' W 095°16'0 0.0
2017-Mar-27 14:23N 29°44' W 095°16'0 0.0
2017-Mar-27 13:04N 29°44' W 095°16'0 0.0
2017-Mar-27 12:32N 29°44' W 095°16'0 0.0
2017-Mar-27 06:27N 29°44' W 095°16'0 0.0
2017-Mar-27 03:21N 29°44' W 095°16'0 0.0
2017-Mar-27 02:30N 29°44' W 095°16'0 0.0
2017-Mar-27 01:33N 29°44' W 095°16'0 0.0
2017-Mar-27 00:32N 29°44' W 095°16'0 0.2
2017-Mar-26 23:33N 29°44' W 095°16'0 0.0
2017-Mar-26 22:30N 29°44' W 095°16'0 0.2
2017-Mar-26 21:14N 29°44' W 095°16'0 0.3
2017-Mar-26 20:32N 29°44' W 095°16'0 0.1
2017-Mar-26 19:30N 29°44' W 095°16'4 0.3
2017-Mar-26 04:22N 29°45' W 095°11'5 5.6
2017-Mar-26 03:33N 29°45' W 095°06'5 4.6
2017-Mar-26 02:33N 29°43' W 095°01'6 6.0
2017-Mar-26 01:33N 29°38' W 094°58'7 6.6
2017-Mar-26 00:33N 29°32' W 094°54'2 0.0
2017-Mar-23 21:11N 29°31' W 094°53'4 6.1
2017-Mar-23 20:34N 29°34' W 094°55'7 6.6
2017-Mar-23 19:33N 29°40' W 094°59'5 5.3
2017-Mar-23 18:33N 29°44' W 095°03'  
2017-Mar-21 03:29N 29°46' W 095°06'  

Dump ship's entire track history